Time;durP1;ratioP1;P1;durP2;ratioP2;P2;SDS_P1;SDS_P2;PMS_P1;PMS_P2;Temp;Humidity;BMP_temperature;BMP_pressure;BME280_temperature;BME280_humidity;BME280_pressure;Samples;Min_cycle;Max_cycle;Signal;HPM_P1;HPM_P2
2022/11/16 00:04:40;;;;;;;;;;;;;;;5.81;100.00;94459.53;10510165;28;2986;-70
2022/11/16 00:09:45;;;;;;;;;;;;;;;5.81;100.00;94443.53;10504526;27;2978;-69
2022/11/16 00:14:49;;;;;;;;;;;;;;;5.88;100.00;94427.22;10512524;28;3085;-70
2022/11/16 00:19:54;;;;;;;;;;;;;;;5.90;100.00;94409.88;10510110;28;3007;-70
2022/11/16 00:25:09;;;;;;;;;;;;;;;5.88;100.00;94403.22;10504387;28;3112;-69
2022/11/16 00:30:15;;;;;;;;;;;;;;;5.89;100.00;94412.81;10508799;28;3048;-70
2022/11/16 00:35:19;;;;;;;;;;;;;;;6.06;100.00;94423.13;10501346;28;2726;-72
2022/11/16 00:40:26;;;;;;;;;;;;;;;6.07;100.00;94430.84;10509868;28;3036;-68
2022/11/16 00:45:32;;;;;;;;;;;;;;;6.20;100.00;94430.22;10503102;28;3081;-69
2022/11/16 00:50:37;;;;;;;;;;;;;;;6.23;100.00;94428.84;10518754;28;3113;-69
2022/11/16 00:55:47;;;;;;;;;;;;;;;6.20;100.00;94435.56;10514439;28;3089;-69
2022/11/16 01:00:52;;;;;;;;;;;;;;;6.21;100.00;94439.03;10505244;28;3057;-69
2022/11/16 01:05:57;;;;;;;;;;;;;;;6.43;100.00;94434.06;10506384;28;3127;-70
2022/11/16 01:16:22;;;;;;;;;;;;;;;6.26;100.00;94433.66;10507041;28;3022;-68
2022/11/16 01:21:26;;;;;;;;;;;;;;;6.33;100.00;94423.47;10515561;28;3037;-70
2022/11/16 01:26:31;;;;;;;;;;;;;;;6.23;100.00;94411.00;10507948;28;2993;-69
2022/11/16 01:31:39;;;;;;;;;;;;;;;6.07;100.00;94398.06;10533840;27;2736;-72
2022/11/16 01:36:43;;;;;;;;;;;;;;;6.05;100.00;94387.66;10542769;27;2725;-69
2022/11/16 01:41:48;;;;;;;;;;;;;;;5.99;100.00;94385.31;10503700;28;3136;-69
2022/11/16 01:46:54;;;;;;;;;;;;;;;5.89;100.00;94396.81;10507484;28;2731;-69
2022/11/16 01:52:03;;;;;;;;;;;;;;;5.99;100.00;94385.31;10511338;28;2777;-69
2022/11/16 01:57:08;;;;;;;;;;;;;;;5.88;100.00;94390.69;10519700;28;2590;-69
2022/11/16 02:02:12;;;;;;;;;;;;;;;5.82;100.00;94391.00;10505046;28;2747;-70
2022/11/16 02:07:17;;;;;;;;;;;;;;;5.82;100.00;94394.47;10504107;28;2776;-69
2022/11/16 02:12:22;;;;;;;;;;;;;;;5.87;100.00;94398.97;10499178;28;2698;-71
2022/11/16 02:17:27;;;;;;;;;;;;;;;5.92;100.00;94391.75;10508561;28;2694;-74
2022/11/16 02:22:32;;;;;;;;;;;;;;;5.95;100.00;94391.19;10506874;28;2778;-75
2022/11/16 02:27:37;;;;;;;;;;;;;;;5.80;100.00;94388.63;10511352;28;2694;-71
2022/11/16 02:32:42;;;;;;;;;;;;;;;5.64;100.00;94401.22;10512028;28;2725;-70
2022/11/16 02:37:48;;;;;;;;;;;;;;;5.73;100.00;94404.13;10512934;28;2740;-70
2022/11/16 02:42:54;;;;;;;;;;;;;;;5.41;100.00;94386.72;10496890;28;2694;-70
2022/11/16 02:47:59;;;;;;;;;;;;;;;5.35;100.00;94390.47;10509767;28;2392;-71
2022/11/16 02:53:03;;;;;;;;;;;;;;;5.38;100.00;94378.47;10509503;28;2756;-72
2022/11/16 02:58:12;;;;;;;;;;;;;;;4.94;100.00;94365.88;10538703;27;2739;-76
2022/11/16 03:03:16;;;;;;;;;;;;;;;5.12;100.00;94383.13;10514241;28;2715;-70
2022/11/16 03:08:21;;;;;;;;;;;;;;;4.97;100.00;94367.22;10530223;28;2462;-69
2022/11/16 03:13:34;;;;;;;;;;;;;;;5.14;100.00;94403.06;10524907;28;2392;-70
2022/11/16 03:18:47;;;;;;;;;;;;;;;5.26;100.00;94384.09;10519816;28;2741;-70
2022/11/16 03:23:53;;;;;;;;;;;;;;;5.16;100.00;94376.19;10520206;28;2813;-70
2022/11/16 03:29:03;;;;;;;;;;;;;;;5.32;100.00;94382.22;10520426;27;2722;-70
2022/11/16 03:34:07;;;;;;;;;;;;;;;5.39;100.00;94404.03;10514844;28;2723;-70
2022/11/16 03:39:13;;;;;;;;;;;;;;;5.25;100.00;94390.50;10516021;27;2738;-70
2022/11/16 03:44:20;;;;;;;;;;;;;;;5.04;100.00;94391.69;10521716;28;2810;-69
2022/11/16 03:49:27;;;;;;;;;;;;;;;5.25;100.00;94417.16;10517624;28;2710;-69
2022/11/16 03:54:38;;;;;;;;;;;;;;;5.37;100.00;94441.63;10522212;28;3141;-74
2022/11/16 03:59:42;;;;;;;;;;;;;;;5.37;100.00;94441.63;10516126;28;2711;-70
2022/11/16 04:28:11;;;;;;;;;;;;;;;4.82;100.00;94480.66;10512677;28;2900;-69
2022/11/16 04:42:39;;;;;;;;;;;;;;;5.18;100.00;94493.13;10498764;28;2829;-68
2022/11/16 04:47:46;;;;;;;;;;;;;;;5.11;100.00;94490.72;10519691;28;2709;-70
2022/11/16 04:52:54;;;;;;;;;;;;;;;5.02;100.00;94493.13;10525797;28;2707;-69
2022/11/16 04:58:04;;;;;;;;;;;;;;;5.01;100.00;94496.88;10516709;27;2761;-68
2022/11/16 05:03:10;;;;;;;;;;;;;;;4.83;100.00;94498.22;10512960;28;2761;-69
2022/11/16 05:08:15;;;;;;;;;;;;;;;4.74;100.00;94494.53;10505792;28;2695;-69
2022/11/16 05:13:20;;;;;;;;;;;;;;;4.73;100.00;94498.25;10510606;28;2754;-68
2022/11/16 05:18:30;;;;;;;;;;;;;;;4.91;100.00;94509.41;10512378;28;2766;-70
2022/11/16 05:28:57;;;;;;;;;;;;;;;5.19;100.00;94511.47;10507242;28;2405;-68
2022/11/16 05:39:23;;;;;;;;;;;;;;;5.25;100.00;94521.06;10509905;28;2746;-68
2022/11/16 05:44:30;;;;;;;;;;;;;;;5.40;100.00;94526.34;10506189;28;2827;-69
2022/11/16 05:49:34;;;;;;;;;;;;;;;5.45;100.00;94524.75;10512139;28;2806;-75
2022/11/16 05:54:39;;;;;;;;;;;;;;;5.33;100.00;94523.16;10508209;28;2742;-74
2022/11/16 05:59:46;;;;;;;;;;;;;;;5.39;100.00;94527.41;10505370;28;2790;-71
2022/11/16 06:04:50;;;;;;;;;;;;;;;5.57;100.00;94519.91;10509709;28;2686;-69
2022/11/16 06:09:58;;;;;;;;;;;;;;;5.66;100.00;94520.91;10512728;28;2556;-69
2022/11/16 06:15:10;;;;;;;;;;;;;;;5.72;100.00;94519.81;10515394;27;2710;-69
2022/11/16 06:20:23;;;;;;;;;;;;;;;5.69;100.00;94515.06;10508061;28;2687;-69
2022/11/16 06:25:29;;;;;;;;;;;;;;;5.81;100.00;94520.88;10503477;28;2816;-70
2022/11/16 06:30:39;;;;;;;;;;;;;;;5.91;100.00;94522.69;10503264;28;2686;-68
2022/11/16 06:35:44;;;;;;;;;;;;;;;5.97;100.00;94517.06;10516021;28;2810;-70
2022/11/16 06:40:51;;;;;;;;;;;;;;;6.12;100.00;94523.41;10513653;28;2691;-70
2022/11/16 06:45:56;;;;;;;;;;;;;;;6.20;100.00;94517.50;10508261;28;2745;-74
2022/11/16 06:51:00;;;;;;;;;;;;;;;6.36;100.00;94519.00;10495637;28;2699;-72
2022/11/16 06:56:03;;;;;;;;;;;;;;;6.41;100.00;94518.13;10515567;28;2781;-71
2022/11/16 07:01:10;;;;;;;;;;;;;;;6.52;100.00;94521.53;10507033;28;2806;-71
2022/11/16 07:06:20;;;;;;;;;;;;;;;6.73;100.00;94506.94;10513034;28;2726;-71
2022/11/16 07:11:25;;;;;;;;;;;;;;;6.77;100.00;94516.00;10507184;28;2767;-71
2022/11/16 07:16:32;;;;;;;;;;;;;;;6.92;100.00;94518.53;10503963;28;2755;-70
2022/11/16 07:21:36;;;;;;;;;;;;;;;6.97;100.00;94513.16;10498597;28;2787;-72
2022/11/16 07:26:41;;;;;;;;;;;;;;;7.14;100.00;94515.41;10495954;28;2738;-71
2022/11/16 07:31:46;;;;;;;;;;;;;;;7.16;100.00;94512.44;10506255;28;2765;-69
2022/11/16 07:53:13;;;;;;;;;;;;;;;7.73;100.00;94529.47;10355959;28;2489;-70
2022/11/16 07:58:16;;;;;;;;;;;;;;;7.76;100.00;94536.91;10375837;28;2489;-70
2022/11/16 08:03:20;;;;;;;;;;;;;;;7.81;100.00;94532.31;10496468;28;2762;-70
2022/11/16 08:08:28;;;;;;;;;;;;;;;7.87;100.00;94530.38;10507327;28;2718;-70
2022/11/16 08:13:33;;;;;;;;;;;;;;;7.95;100.00;94536.97;10499376;27;2792;-70
2022/11/16 08:18:39;;;;;;;;;;;;;;;7.97;100.00;94535.59;10514492;28;2084;-70
2022/11/16 08:23:44;;;;;;;;;;;;;;;8.02;100.00;94540.91;10499151;28;2171;-69
2022/11/16 08:28:52;;;;;;;;;;;;;;;8.14;100.00;94532.44;10506090;28;2044;-70
2022/11/16 08:33:57;;;;;;;;;;;;;;;8.31;100.00;94534.63;10512122;28;2037;-70
2022/11/16 08:39:02;;;;;;;;;;;;;;;8.31;100.00;94539.97;10508459;28;2063;-73
2022/11/16 08:44:06;;;;;;;;;;;;;;;8.35;100.00;94538.31;10499210;28;2137;-72
2022/11/16 08:49:10;;;;;;;;;;;;;;;8.52;100.00;94541.28;10502896;28;2048;-70
2022/11/16 08:54:15;;;;;;;;;;;;;;;8.56;100.00;94542.31;10509489;28;2096;-71
2022/11/16 08:59:21;;;;;;;;;;;;;;;8.78;100.00;94549.78;10503899;28;2067;-73
2022/11/16 09:04:27;;;;;;;;;;;;;;;9.01;100.00;94552.63;10512610;28;2073;-71
2022/11/16 09:09:40;;;;;;;;;;;;;;;9.31;100.00;94554.00;10512299;28;2308;-71
2022/11/16 09:14:45;;;;;;;;;;;;;;;9.58;100.00;94553.25;10528050;28;2120;-74
2022/11/16 09:19:52;;;;;;;;;;;;;;;9.58;100.00;94555.91;10499295;28;1995;-73
2022/11/16 09:24:57;;;;;;;;;;;;;;;9.51;100.00;94553.63;10510616;28;1989;-76
2022/11/16 09:30:04;;;;;;;;;;;;;;;9.69;100.00;94557.31;10507580;28;2456;-75
2022/11/16 09:35:09;;;;;;;;;;;;;;;9.67;100.00;94554.94;10503000;28;2097;-71
2022/11/16 09:40:20;;;;;;;;;;;;;;;9.86;100.00;94559.41;10506341;28;2209;-72
2022/11/16 09:45:25;;;;;;;;;;;;;;;9.72;100.00;94562.09;10509374;28;2020;-70
2022/11/16 09:50:31;;;;;;;;;;;;;;;9.72;100.00;94562.88;10501956;28;2082;-70
2022/11/16 09:55:39;;;;;;;;;;;;;;;9.78;100.00;94568.16;10506154;28;2075;-69
2022/11/16 10:00:46;;;;;;;;;;;;;;;9.57;100.00;94576.59;10502339;28;2027;-70
2022/11/16 10:05:53;;;;;;;;;;;;;;;9.51;100.00;94571.63;10506569;28;2138;-71
2022/11/16 10:10:58;;;;;;;;;;;;;;;9.39;100.00;94574.75;10504289;28;1964;-69
2022/11/16 10:16:06;;;;;;;;;;;;;;;9.42;100.00;94566.16;10493891;28;2007;-70
2022/11/16 10:21:11;;;;;;;;;;;;;;;9.51;100.00;94561.69;10507738;28;1967;-71
2022/11/16 10:26:19;;;;;;;;;;;;;;;9.46;100.00;94567.13;10510542;28;1995;-73
2022/11/16 10:31:24;;;;;;;;;;;;;;;9.61;100.00;94561.50;10507070;28;2101;-71
2022/11/16 10:36:28;;;;;;;;;;;;;;;9.54;100.00;94563.75;10497085;28;2594;-73
2022/11/16 10:41:33;;;;;;;;;;;;;;;9.34;100.00;94566.81;10501683;28;1985;-70
2022/11/16 10:46:39;;;;;;;;;;;;;;;9.25;100.00;94563.22;10504512;28;1995;-69
2022/11/16 10:51:44;;;;;;;;;;;;;;;9.17;100.00;94562.81;10509236;28;2081;-72
2022/11/16 10:56:51;;;;;;;;;;;;;;;9.25;100.00;94561.34;10508055;28;1900;-72
2022/11/16 11:01:56;;;;;;;;;;;;;;;9.31;100.00;94560.16;10508801;28;2003;-74
2022/11/16 11:07:00;;;;;;;;;;;;;;;9.49;100.00;94553.13;10502139;28;1972;-71
2022/11/16 11:17:25;;;;;;;;;;;;;;;10.11;100.00;94537.41;10501696;28;1960;-70
2022/11/16 11:22:37;;;;;;;;;;;;;;;10.51;100.00;94529.63;10499526;28;2105;-72
2022/11/16 11:27:41;;;;;;;;;;;;;;;10.88;100.00;94522.31;10545004;28;2342;-69
2022/11/16 11:32:47;;;;;;;;;;;;;;;11.08;100.00;94525.31;10511345;28;1938;-71
2022/11/16 11:37:53;;;;;;;;;;;;;;;11.04;100.00;94520.84;10501555;28;2132;-70
2022/11/16 11:42:57;;;;;;;;;;;;;;;11.11;100.00;94521.22;10517696;28;2051;-70
2022/11/16 11:48:01;;;;;;;;;;;;;;;10.92;100.00;94520.63;10506656;28;2033;-70
2022/11/16 11:53:05;;;;;;;;;;;;;;;11.19;100.00;94516.97;10515665;28;1979;-71
2022/11/16 11:58:13;;;;;;;;;;;;;;;11.09;100.00;94518.03;10513683;28;1897;-71
2022/11/16 12:03:19;;;;;;;;;;;;;;;11.34;100.00;94525.47;10509960;28;1885;-71
2022/11/16 12:08:26;;;;;;;;;;;;;;;11.39;100.00;94521.88;10509231;28;1965;-69
2022/11/16 12:13:31;;;;;;;;;;;;;;;11.33;100.00;94518.50;10507401;28;2012;-70
2022/11/16 12:18:38;;;;;;;;;;;;;;;11.20;100.00;94519.38;10510964;28;1999;-71
2022/11/16 12:23:44;;;;;;;;;;;;;;;10.93;100.00;94514.13;10513319;28;1961;-72
2022/11/16 12:28:49;;;;;;;;;;;;;;;10.64;100.00;94522.63;10504053;28;2206;-71
2022/11/16 12:33:53;;;;;;;;;;;;;;;10.55;100.00;94517.16;10505204;28;2233;-70
2022/11/16 12:38:57;;;;;;;;;;;;;;;10.60;100.00;94505.50;10515236;28;1916;-71
2022/11/16 12:44:04;;;;;;;;;;;;;;;10.75;100.00;94514.03;10508117;28;1976;-70
2022/11/16 12:49:09;;;;;;;;;;;;;;;10.81;100.00;94515.50;10514142;28;1920;-68
2022/11/16 12:54:15;;;;;;;;;;;;;;;10.79;100.00;94511.50;10517590;28;1975;-77
2022/11/16 12:59:20;;;;;;;;;;;;;;;10.79;100.00;94493.47;10512149;28;1917;-75
2022/11/16 13:04:26;;;;;;;;;;;;;;;10.88;100.00;94482.81;10507104;28;1922;-71
2022/11/16 13:09:32;;;;;;;;;;;;;;;11.20;100.00;94473.66;10507367;28;2008;-72
2022/11/16 13:14:44;;;;;;;;;;;;;;;11.56;100.00;94472.69;10514607;28;1960;-69
2022/11/16 13:19:50;;;;;;;;;;;;;;;11.85;100.00;94470.28;10505254;28;1955;-73
2022/11/16 13:24:57;;;;;;;;;;;;;;;12.23;100.00;94467.03;10507505;28;1967;-74
2022/11/16 13:30:04;;;;;;;;;;;;;;;12.25;100.00;94467.50;10499038;28;2026;-71
2022/11/16 13:35:09;;;;;;;;;;;;;;;12.38;100.00;94465.78;10502241;28;2032;-69
2022/11/16 13:40:13;;;;;;;;;;;;;;;12.93;100.00;94463.22;10549233;27;1905;-70
2022/11/16 13:45:20;;;;;;;;;;;;;;;12.62;100.00;94457.22;10513502;28;2079;-71
2022/11/16 13:50:24;;;;;;;;;;;;;;;12.34;100.00;94454.03;10510911;28;2044;-71
2022/11/16 13:55:30;;;;;;;;;;;;;;;12.00;100.00;94454.78;10508191;28;2057;-70
2022/11/16 14:00:38;;;;;;;;;;;;;;;11.74;100.00;94442.03;10519588;28;1901;-73
2022/11/16 14:05:43;;;;;;;;;;;;;;;11.30;100.00;94443.78;10516740;28;1913;-70
2022/11/16 14:10:48;;;;;;;;;;;;;;;11.36;100.00;94445.22;10510223;28;2025;-71
2022/11/16 14:15:58;;;;;;;;;;;;;;;11.31;100.00;94442.69;10523137;28;1913;-69
2022/11/16 14:21:06;;;;;;;;;;;;;;;11.09;100.00;94448.91;10511413;28;1945;-70
2022/11/16 14:26:13;;;;;;;;;;;;;;;11.00;100.00;94458.03;10513991;28;2043;-70
2022/11/16 14:31:27;;;;;;;;;;;;;;;10.60;100.00;94452.56;10511385;28;1955;-69
2022/11/16 14:36:31;;;;;;;;;;;;;;;10.29;100.00;94455.94;10510398;28;2159;-70
2022/11/16 14:41:37;;;;;;;;;;;;;;;10.39;100.00;94440.72;10503315;28;1974;-68
2022/11/16 14:46:49;;;;;;;;;;;;;;;10.07;100.00;94457.78;10514280;28;2051;-70
2022/11/16 14:51:56;;;;;;;;;;;;;;;9.91;100.00;94449.25;10504143;28;1957;-69
2022/11/16 14:57:02;;;;;;;;;;;;;;;9.48;100.00;94444.25;10518492;28;1941;-70
2022/11/16 15:02:08;;;;;;;;;;;;;;;9.23;100.00;94444.75;10507529;28;2087;-70
2022/11/16 15:07:15;;;;;;;;;;;;;;;9.00;100.00;94439.25;10506805;28;2028;-70
2022/11/16 15:17:45;;;;;;;;;;;;;;;8.75;100.00;94439.69;10506942;28;1916;-75
2022/11/16 15:22:51;;;;;;;;;;;;;;;8.57;100.00;94442.13;10511498;28;1956;-78
2022/11/16 15:28:00;;;;;;;;;;;;;;;8.28;100.00;94441.50;10513283;28;1980;-70
2022/11/16 15:33:04;;;;;;;;;;;;;;;8.10;100.00;94437.75;10511348;28;1916;-70
2022/11/16 15:38:09;;;;;;;;;;;;;;;7.83;100.00;94430.38;10507755;28;1993;-70
2022/11/16 15:48:32;;;;;;;;;;;;;;;7.50;100.00;94446.28;10513061;28;1991;-72
2022/11/16 15:53:39;;;;;;;;;;;;;;;7.39;100.00;94434.16;10512362;28;1944;-72
2022/11/16 15:59:00;;;;;;;;;;;;;;;7.44;100.00;94442.09;10519710;28;1901;-73
2022/11/16 16:04:03;;;;;;;;;;;;;;;7.24;100.00;94439.66;10512972;28;1963;-74
2022/11/16 16:09:08;;;;;;;;;;;;;;;7.16;100.00;94440.28;10511349;28;1970;-74
2022/11/16 16:14:18;;;;;;;;;;;;;;;7.01;100.00;94433.25;10545883;28;1991;-72
2022/11/16 16:19:28;;;;;;;;;;;;;;;6.96;100.00;94442.09;10516795;28;1987;-72
2022/11/16 16:24:35;;;;;;;;;;;;;;;6.88;100.00;94437.38;10519877;28;1972;-73
2022/11/16 16:29:42;;;;;;;;;;;;;;;6.72;100.00;94441.28;10522775;28;1994;-74
2022/11/16 16:34:47;;;;;;;;;;;;;;;6.82;100.00;94435.03;10520275;28;2017;-71
2022/11/16 16:39:51;;;;;;;;;;;;;;;6.71;100.00;94445.81;10524243;28;1976;-71
2022/11/16 16:45:03;;;;;;;;;;;;;;;6.65;100.00;94440.81;10508982;28;1977;-72
2022/11/16 16:50:09;;;;;;;;;;;;;;;6.61;100.00;94437.09;10521542;28;2063;-74
2022/11/16 16:55:16;;;;;;;;;;;;;;;6.52;100.00;94438.78;10510720;28;2085;-71
2022/11/16 17:00:20;;;;;;;;;;;;;;;6.48;100.00;94441.22;10524296;28;1968;-69
2022/11/16 17:05:27;;;;;;;;;;;;;;;6.45;100.00;94436.44;10522590;28;2057;-72
2022/11/16 17:10:37;;;;;;;;;;;;;;;6.40;100.00;94434.59;10521054;28;1893;-71
2022/11/16 17:15:41;;;;;;;;;;;;;;;6.31;100.00;94436.28;10510023;28;1892;-70
2022/11/16 17:26:03;;;;;;;;;;;;;;;6.23;100.00;94427.00;10515888;28;1968;-70
2022/11/16 17:31:09;;;;;;;;;;;;;;;6.20;100.00;94440.09;10517879;28;1928;-68
2022/11/16 17:36:13;;;;;;;;;;;;;;;6.13;100.00;94421.75;10512106;28;1999;-69
2022/11/16 17:41:17;;;;;;;;;;;;;;;6.08;100.00;94415.66;10519302;28;1901;-70
2022/11/16 17:46:28;;;;;;;;;;;;;;;6.03;100.00;94415.69;10518710;28;1984;-71
2022/11/16 17:51:33;;;;;;;;;;;;;;;5.96;100.00;94402.66;10519050;28;1937;-76
2022/11/16 17:56:37;;;;;;;;;;;;;;;5.98;100.00;94405.88;10518369;28;1975;-69
2022/11/16 18:01:49;;;;;;;;;;;;;;;5.96;100.00;94411.44;10518344;28;1949;-68
2022/11/16 18:07:00;;;;;;;;;;;;;;;5.96;100.00;94419.44;10510389;28;2093;-69
2022/11/16 18:12:09;;;;;;;;;;;;;;;5.88;100.00;94400.56;10527864;28;1967;-71
2022/11/16 18:17:17;;;;;;;;;;;;;;;5.81;100.00;94400.06;10542352;27;1877;-69
2022/11/16 18:22:29;;;;;;;;;;;;;;;5.82;100.00;94394.47;10512662;28;1920;-71
2022/11/16 18:27:35;;;;;;;;;;;;;;;5.82;100.00;94399.78;10519560;28;1948;-69
2022/11/16 18:32:44;;;;;;;;;;;;;;;5.78;100.00;94382.75;10507605;28;1936;-69
2022/11/16 18:37:50;;;;;;;;;;;;;;;5.71;100.00;94368.94;10498901;28;1906;-70
2022/11/16 18:42:55;;;;;;;;;;;;;;;5.69;100.00;94365.75;10498671;28;1920;-71
2022/11/16 18:47:59;;;;;;;;;;;;;;;5.66;100.00;94363.63;10511934;28;2081;-74
2022/11/16 18:53:05;;;;;;;;;;;;;;;5.59;100.00;94355.16;10511509;28;1985;-70
2022/11/16 18:58:11;;;;;;;;;;;;;;;5.55;100.00;94346.13;10519855;28;2083;-73
2022/11/16 19:03:38;;;;;;;;;;;;;;;5.45;100.00;94348.84;10515959;28;1968;-70
2022/11/16 19:08:43;;;;;;;;;;;;;;;5.41;100.00;94349.41;10515638;28;2032;-70
2022/11/16 19:13:49;;;;;;;;;;;;;;;5.25;100.00;94342.56;10514989;28;1969;-70
2022/11/16 19:19:02;;;;;;;;;;;;;;;5.23;100.00;94327.94;10517266;28;2028;-71
2022/11/16 19:24:11;;;;;;;;;;;;;;;5.20;100.00;94331.94;10516133;28;1996;-70
2022/11/16 19:29:14;;;;;;;;;;;;;;;5.15;100.00;94326.63;10517487;28;1992;-71
2022/11/16 19:34:25;;;;;;;;;;;;;;;5.12;100.00;94319.19;10512563;28;2043;-71
2022/11/16 19:39:35;;;;;;;;;;;;;;;5.16;100.00;94314.91;10522522;28;1889;-71
2022/11/16 19:44:40;;;;;;;;;;;;;;;5.28;100.00;94301.22;10497945;28;2129;-70
2022/11/16 19:49:46;;;;;;;;;;;;;;;5.27;100.00;94300.44;10511299;28;1906;-72
2022/11/16 19:54:50;;;;;;;;;;;;;;;5.28;100.00;94299.41;10515211;28;2100;-68
2022/11/16 19:59:56;;;;;;;;;;;;;;;5.24;100.00;94295.69;10512402;28;2034;-72
2022/11/16 20:05:04;;;;;;;;;;;;;;;5.24;100.00;94287.69;10510436;28;1974;-77
2022/11/16 20:10:10;;;;;;;;;;;;;;;5.24;100.00;94290.34;10541595;27;2055;-68
2022/11/16 20:15:16;;;;;;;;;;;;;;;5.15;100.00;94287.47;10517276;28;1954;-69
2022/11/16 20:20:21;;;;;;;;;;;;;;;5.05;100.00;94284.88;10522273;28;1963;-69
2022/11/16 20:25:27;;;;;;;;;;;;;;;5.02;100.00;94281.94;10509633;28;2159;-69
2022/11/16 20:30:33;;;;;;;;;;;;;;;5.02;100.00;94298.72;10519394;28;1922;-71
2022/11/16 20:35:41;;;;;;;;;;;;;;;5.04;100.00;94293.94;10517345;28;1898;-70
2022/11/16 20:40:45;;;;;;;;;;;;;;;4.91;100.00;94286.53;10520080;28;2200;-73
2022/11/16 20:45:49;;;;;;;;;;;;;;;4.78;100.00;94282.63;10518224;28;1922;-69
2022/11/16 20:50:57;;;;;;;;;;;;;;;4.69;100.00;94273.59;10527977;28;1847;-71
2022/11/16 20:56:03;;;;;;;;;;;;;;;4.55;100.00;94284.03;10510696;28;1980;-69
2022/11/16 21:01:06;;;;;;;;;;;;;;;4.59;100.00;94265.66;10515917;28;1837;-69
2022/11/16 21:06:10;;;;;;;;;;;;;;;4.53;100.00;94270.22;10510146;28;2161;-69
2022/11/16 21:11:15;;;;;;;;;;;;;;;4.46;100.00;94279.56;10514002;28;2009;-72
2022/11/16 21:16:20;;;;;;;;;;;;;;;4.49;100.00;94281.66;10515657;28;1918;-70
2022/11/16 21:21:27;;;;;;;;;;;;;;;4.51;100.00;94282.97;10501558;28;1924;-69
2022/11/16 21:26:30;;;;;;;;;;;;;;;4.49;100.00;94286.97;10511389;28;1967;-69
2022/11/16 21:31:36;;;;;;;;;;;;;;;4.41;100.00;94303.50;10514479;28;2124;-70
2022/11/16 21:36:44;;;;;;;;;;;;;;;4.28;100.00;94296.88;10510744;28;2027;-72
2022/11/16 21:41:49;;;;;;;;;;;;;;;4.20;100.00;94287.59;10503096;28;2075;-70
2022/11/16 21:46:55;;;;;;;;;;;;;;;4.12;100.00;94290.78;10502586;28;2060;-70
2022/11/16 21:52:03;;;;;;;;;;;;;;;4.13;100.00;94278.28;10513177;28;1987;-70
2022/11/16 21:57:07;;;;;;;;;;;;;;;4.19;100.00;94254.06;10510103;28;2107;-68
2022/11/16 22:02:13;;;;;;;;;;;;;;;4.22;100.00;94247.44;10503260;28;1967;-68
2022/11/16 22:12:37;;;;;;;;;;;;;;;4.30;100.00;94246.88;10506750;28;1978;-69
2022/11/16 22:17:55;;;;;;;;;;;;;;;4.09;100.00;94248.00;10513390;28;1912;-69
2022/11/16 22:23:06;;;;;;;;;;;;;;;4.02;100.00;94248.28;10511907;28;2105;-70
2022/11/16 22:28:15;;;;;;;;;;;;;;;3.93;100.00;94261.31;10517398;28;2017;-69
2022/11/16 22:33:23;;;;;;;;;;;;;;;3.87;100.00;94253.63;10516147;28;2018;-71
2022/11/16 22:38:28;;;;;;;;;;;;;;;3.86;100.00;94252.03;10518468;28;2016;-69
2022/11/16 22:43:32;;;;;;;;;;;;;;;3.84;100.00;94235.56;10516787;28;2004;-70
2022/11/16 22:48:38;;;;;;;;;;;;;;;3.90;100.00;94224.66;10506720;28;1925;-70
2022/11/16 22:53:43;;;;;;;;;;;;;;;3.95;100.00;94231.81;10509834;28;2100;-70
2022/11/16 22:58:51;;;;;;;;;;;;;;;3.87;100.00;94224.38;10502679;28;1943;-70
2022/11/16 23:03:55;;;;;;;;;;;;;;;3.83;100.00;94223.34;10503116;28;2124;-69
2022/11/16 23:09:01;;;;;;;;;;;;;;;3.82;100.00;94214.56;10495324;28;2068;-70
2022/11/16 23:30:11;;;;;;;;;;;;;;;3.67;100.00;94188.81;10518795;28;1924;-74
2022/11/16 23:35:17;;;;;;;;;;;;;;;3.55;100.00;94190.94;10511491;28;1991;-72
2022/11/16 23:40:23;;;;;;;;;;;;;;;3.39;100.00;94176.91;10513391;28;1975;-74
2022/11/16 23:45:28;;;;;;;;;;;;;;;3.38;100.00;94163.91;10506063;28;2056;-69
2022/11/16 23:50:32;;;;;;;;;;;;;;;3.46;100.00;94158.03;10511810;28;1977;-74
2022/11/16 23:55:39;;;;;;;;;;;;;;;3.42;100.00;94143.69;10517048;28;2123;-70
